Flight Track Log - Related Links

Times and Time Zones

All times are in EDT time to prevent confusion due to time zone crossing. See the EJA831 flight status page for this flight to view local times or setup timezone preferences in your user account.

Time Position Orientation Groundspeed Altitude Reporting Facility
EDT Latitude Longitude Course Direction KTS MPH feet Rate Location/Type
Tue 02:05:22 PM 36.0753 -115.1550 271° West 165 190 3,400  Level Los Angeles Center
Tue 02:06:11 PM 36.0758 -115.2161 271° West 223 257 6,000 3,266 Climbing Los Angeles Center
Tue 02:06:41 PM 36.0764 -115.2483 271° West 227 261 7,700 3,717 Climbing Los Angeles Center
Tue 02:07:43 PM 36.1308 -115.2931 326° Northwest 255 293 11,700 3,242 Climbing Los Angeles Center
Tue 02:08:45 PM 36.1836 -115.2225 47° Northeast 290 334 14,400 2,468 Climbing Los Angeles Center
Tue 02:09:47 PM 36.1972 -115.1108 81° East 327 376 16,800 2,565 Climbing Los Angeles Center
Tue 02:10:49 PM 36.1975 -114.9658 90° East 349 402 19,700 2,565 Climbing Los Angeles Center
Tue 02:11:51 PM 36.1989 -114.8414 89° East 360 414 22,100 2,256 Climbing Los Angeles Center
Tue 02:12:54 PM 36.2489 -114.7339 60° Northeast 381 438 24,400 2,304 Climbing Los Angeles Center
Tue 02:13:56 PM 36.3331 -114.6547 37° Northeast 383 441 26,900 1,742 Climbing Los Angeles Center
Tue 02:14:58 PM 36.4175 -114.5744 37° Northeast 382 440 28,000 1,016 Climbing Los Angeles Center
Tue 02:16:00 PM 36.5281 -114.4686 38° Northeast 406 467 29,000 484 Climbing Los Angeles Center
Tue 02:17:02 PM 36.6308 -114.3869 33° Northeast 432 497 29,000  Level Los Angeles Center
Tue 02:18:04 PM 36.7358 -114.3072 31° Northeast 440 506 29,000  Level Los Angeles Center
Tue 02:19:06 PM 36.8403 -114.2250 32° Northeast 442 509 29,000  Level Los Angeles Center
Tue 02:20:08 PM 36.9439 -114.1453 32° Northeast 445 512 29,000  Level Los Angeles Center
Tue 02:21:10 PM 37.0672 -114.0461 33° Northeast 449 517 29,000  Level Los Angeles Center
Tue 02:22:13 PM 37.1706 -113.9656 32° Northeast 443 510 29,000  Level Los Angeles Center
Tue 02:23:15 PM 37.2736 -113.8853 32° Northeast 439 505 29,000  Level Los Angeles Center
Tue 02:24:17 PM 37.3800 -113.8033 31° Northeast 439 505 29,000  Level Los Angeles Center
Tue 02:25:19 PM 37.4836 -113.7219 32° Northeast 439 505 29,000  Level Los Angeles Center
Tue 02:26:21 PM 37.5864 -113.6397 32° Northeast 438 504 29,000  Level Los Angeles Center
Tue 02:27:23 PM 37.6900 -113.5575 32° Northeast 443 510 29,000  Level Los Angeles Center
Tue 02:28:24 PM 37.8028 -113.4933 24° Northeast 439 505 29,000  Level Salt Lake Center
Tue 02:29:26 PM 37.9400 -113.4219 22° Northeast 442 509 29,000  Level Salt Lake Center
Tue 02:30:28 PM 38.0531 -113.3600 23° Northeast 442 509 29,000  Level Salt Lake Center
Tue 02:31:30 PM 38.1672 -113.2981 23° Northeast 444 511 29,000  Level Salt Lake Center
Tue 02:32:32 PM 38.2811 -113.2361 23° Northeast 443 510 29,000  Level Salt Lake Center
Tue 02:33:34 PM 38.3958 -113.1728 23° Northeast 448 516 29,000  Level Salt Lake Center
Tue 02:34:36 PM 38.5100 -113.1139 22° Northeast 443 510 29,000  Level Salt Lake Center
Tue 02:35:38 PM 38.6242 -113.0492 24° Northeast 446 513 29,000  Level Salt Lake Center
Tue 02:36:40 PM 38.7617 -112.9758 23° Northeast 446 513 29,000  Level Salt Lake Center
Tue 02:37:42 PM 38.8764 -112.9114 24° Northeast 449 517 29,000  Level Salt Lake Center
Tue 02:38:44 PM 38.9903 -112.8500 23° Northeast 445 512 29,000  Level Salt Lake Center
Tue 02:39:46 PM 39.1044 -112.7861 23° Northeast 448 516 29,000  Level Salt Lake Center
Tue 02:40:48 PM 39.2133 -112.7267 23° Northeast 430 495 29,000  Level Salt Lake Center
Tue 02:41:50 PM 39.3189 -112.6658 24° Northeast 419 482 29,000  Level Salt Lake Center
Tue 02:42:52 PM 39.4328 -112.6025 23° Northeast 414 476 29,000 -683 Level Salt Lake Center
Tue 02:43:53 PM 39.5378 -112.5456 23° Northeast 411 473 27,600 -1,756 Descending Salt Lake Center
Tue 02:44:55 PM 39.6411 -112.4894 23° Northeast 403 464 25,400 -2,274 Descending Salt Lake Center
Tue 02:45:57 PM 39.7653 -112.4181 24° Northeast 407 468 22,900 -2,274 Descending Salt Lake Center
Tue 02:46:59 PM 39.8714 -112.3578 24° Northeast 414 476 20,700 -2,182 Descending Salt Lake Center
Tue 02:47:14 PM 39.9006 -112.3531 North 411 473 20,100 -2,129 Descending Salt Lake Center
Tue 02:48:01 PM 39.9722 -112.2997 30° Northeast 394 453 18,500 -2,182 Descending Salt Lake Center
Tue 02:48:09 PM 39.9931 -112.2975 North 396 456 18,100 -1,645 Descending Salt Lake Center
Tue 02:49:03 PM 40.0733 -112.2486 25° Northeast 389 448 16,800 -1,574 Descending Salt Lake Center
Tue 02:49:10 PM 40.0933 -112.2500 357° North 387 445 16,500 -1,258 Descending Salt Lake Center
Tue 02:50:05 PM 40.1769 -112.2147 18° North 384 442 15,500 -1,279 Descending Salt Lake Center
Tue 02:50:11 PM 40.1986 -112.2153 359° North 383 441 15,200 -1,082 Descending Salt Lake Center
Tue 02:51:06 PM 40.2769 -112.1806 19° North 372 428 14,400 -1,082 Descending Salt Lake Center
Tue 02:51:12 PM 40.3011 -112.1781 North 373 429 14,100 -387 Descending Salt Lake Center
Tue 02:52:08 PM 40.3750 -112.1467 18° North 364 419 14,000  Descending Salt Lake Center
Tue 02:52:19 PM 40.4094 -112.1389 10° North 366 421 14,100 -1,099 Climbing Salt Lake Center
Tue 02:53:19 PM 40.5083 -112.1056 14° North 366 421 12,700 -1,327 Descending Salt Lake Center
Tue 02:54:12 PM 40.5919 -112.0806 13° North 360 414 11,600 -1,418 Descending Salt Lake Center
Tue 02:54:14 PM 40.5969 -112.0844 329° Northwest 347 399 11,400 -484 Descending Salt Lake Center
Tue 02:55:14 PM 40.6697 -112.0825 North 271 312 11,100 -448 Descending Salt Lake Center
Tue 02:55:21 PM 40.6833 -112.0861 349° North 265 305 10,900  Descending Salt Lake Center
Tue 02:56:15 PM 40.7419 -112.0906 357° North 258 297 11,100 109 Climbing Salt Lake Center
Tue 02:56:16 PM 40.7469 -112.0931 339° North 259 298 11,000 -97 Descending Salt Lake Center
Tue 02:57:17 PM 40.8150 -112.0997 356° North 264 304 11,000 -488 Level Salt Lake Center
Tue 02:58:19 PM 40.8881 -112.1064 356° North 261 300 10,000 -1,091 Descending Salt Lake Center
Tue 02:59:18 PM 40.9664 -112.0925 North 265 305 8,800 -968 Descending Salt Lake Center
Tue 02:59:21 PM 40.9606 -112.0961 205° Southwest 259 298 9,000 -787 Climbing Salt Lake Center
Tue 03:00:19 PM 40.9842 -112.0069 71° East 256 295 8,000 -885 Descending Salt Lake Center
Tue 03:00:22 PM 40.9831 -111.9964 98° East 252 290 8,100 -590 Climbing Salt Lake Center
Tue 03:01:20 PM 40.9394 -111.9653 152° Southeast 191 220 7,400 -581 Descending Salt Lake Center
Tue 03:01:24 PM 40.9381 -111.9636 138° Southeast 193 222 7,500 -818 Climbing Salt Lake Center
Tue 03:02:26 PM 40.8900 -111.9617 178° South 176 203 6,500 -1,048 Descending Salt Lake Center
Tue 03:02:27 PM 40.8875 -111.9631 203° Southwest 175 201 6,400 -1,161 Descending Salt Lake Center
Tue 03:03:28 PM 40.8469 -111.9628 180° South 154 177 5,300 -984 Descending Salt Lake Center
Tue 03:04:29 PM 40.8056 -111.9628 180° South 136 157 4,400 -871 Descending Salt Lake Center
Tue 03:04:30 PM 40.8106 -111.9622 North 134 154 4,400  Level Salt Lake Center
Tue 03:06:00 PM 40.7833 -111.9667 159° South  Level FlightAware Approximate

Login

Don't have an account? Register now (free) for customized features, flight alerts, and more!